Terminal Aerodrome Forecast
Issued by NWS Wakefield, VA

Home | Current Version | Previous Version | Text Only | Print | Product List | Glossary On
Versions: 1 2 3 4 5 6 7 8 9 10 11 12 13 14 15
000
FTUS41 KAKQ 280543 RRA
TAFRIC
TAF
KRIC 280543Z 2806/2906 17004KT P6SM VCSH BKN040 BKN100
     FM281700 16006KT P6SM VCSH BKN050
     FM290300 17003KT P6SM SCT050 BKN100=

USA.gov is the U.S. government's official web portal to all federal, state and local government web resources and services.